createdAt,value
2023-04-22T00:00:23.465Z,12.06
2023-04-22T00:04:35.965Z,12.15
2023-04-22T00:08:48.418Z,12.12
2023-04-22T00:13:01.069Z,12.38
2023-04-22T00:17:13.406Z,12.46
2023-04-22T00:21:25.759Z,12.33
2023-04-22T00:25:38.135Z,12.52
2023-04-22T00:29:50.516Z,12.39
2023-04-22T00:34:04.228Z,12.36
2023-04-22T00:38:16.745Z,12.22
2023-04-22T00:42:29.641Z,12.16
2023-04-22T00:46:45.882Z,12.05
2023-04-22T00:50:58.347Z,11.86
2023-04-22T00:55:12.169Z,11.97
2023-04-22T00:59:25.950Z,12.08
2023-04-22T01:03:40.312Z,12.19
2023-04-22T01:07:53.104Z,11.99
2023-04-22T01:12:06.110Z,11.80
2023-04-22T01:16:19.450Z,11.69
2023-04-22T01:20:32.219Z,11.57
2023-04-22T01:24:44.643Z,11.63
2023-04-22T01:28:57.237Z,11.69
2023-04-22T01:33:10.779Z,11.77
2023-04-22T01:37:23.421Z,11.90
2023-04-22T01:41:36.135Z,11.69
2023-04-22T01:45:48.468Z,11.53
2023-04-22T01:50:00.892Z,11.52
2023-04-22T01:54:13.490Z,11.50
2023-04-22T01:58:28.985Z,11.58
2023-04-22T02:02:42.622Z,11.63
2023-04-22T02:06:55.039Z,11.73
2023-04-22T02:11:07.363Z,11.86
2023-04-22T02:15:20.240Z,11.91
2023-04-22T02:19:32.821Z,11.89
2023-04-22T02:23:46.804Z,11.89
2023-04-22T02:27:59.182Z,11.92
2023-04-22T02:32:11.761Z,11.85
2023-04-22T02:36:25.432Z,11.50
2023-04-22T02:40:37.930Z,11.51
2023-04-22T02:44:52.029Z,11.36
2023-04-22T02:49:05.746Z,11.37
2023-04-22T02:53:18.009Z,11.58
2023-04-22T02:57:30.508Z,11.42
2023-04-22T03:01:42.951Z,11.31
2023-04-22T03:06:01.726Z,11.34
2023-04-22T03:10:14.048Z,11.32
2023-04-22T03:14:26.695Z,11.57
2023-04-22T03:18:39.460Z,11.57
2023-04-22T03:22:52.380Z,11.59
2023-04-22T03:27:05.626Z,11.69
2023-04-22T03:31:18.102Z,11.78
2023-04-22T03:35:31.791Z,11.81
2023-04-22T03:39:46.296Z,11.83
2023-04-22T03:44:01.633Z,11.98
2023-04-22T03:48:15.715Z,11.94
2023-04-22T03:52:33.172Z,12.05
2023-04-22T03:56:47.769Z,12.04
2023-04-22T04:01:00.801Z,11.99
2023-04-22T04:05:14.177Z,11.89
2023-04-22T04:09:27.660Z,11.85
2023-04-22T04:13:39.978Z,11.90
2023-04-22T04:18:21.859Z,11.94
2023-04-22T04:22:35.708Z,11.93
2023-04-22T04:26:49.275Z,12.00
2023-04-22T04:31:06.883Z,12.01
2023-04-22T04:35:20.641Z,12.05
2023-04-22T04:39:37.311Z,11.96
2023-04-22T04:43:52.143Z,12.05
2023-04-22T04:48:15.692Z,12.00
2023-04-22T04:52:35.952Z,11.95
2023-04-22T04:56:48.794Z,12.02
2023-04-22T05:01:01.129Z,12.12
2023-04-22T05:05:14.091Z,12.02
2023-04-22T05:09:28.571Z,11.78
2023-04-22T05:13:41.103Z,11.62
2023-04-22T05:17:57.354Z,11.84
2023-04-22T05:22:11.573Z,11.58
2023-04-22T05:26:24.109Z,11.41
2023-04-22T05:30:36.887Z,11.27
2023-04-22T05:34:49.437Z,11.78
2023-04-22T05:39:01.866Z,11.58
2023-04-22T05:43:16.094Z,11.56
2023-04-22T05:47:33.934Z,11.74
2023-04-22T05:51:46.782Z,11.90
2023-04-22T05:56:02.670Z,11.96
2023-04-22T06:00:15.888Z,11.99
2023-04-22T06:04:38.062Z,12.05
2023-04-22T06:08:51.406Z,12.13
2023-04-22T06:13:03.944Z,12.37
2023-04-22T06:17:16.361Z,12.65
2023-04-22T06:21:29.018Z,12.97
2023-04-22T06:25:42.408Z,13.48
2023-04-22T06:29:55.152Z,13.73
2023-04-22T06:34:07.581Z,14.25
2023-04-22T06:38:20.787Z,14.17
2023-04-22T06:43:00.123Z,14.40
2023-04-22T06:47:28.305Z,15.29
2023-04-22T06:51:54.892Z,15.29
2023-04-22T06:56:07.394Z,16.02
2023-04-22T07:00:19.856Z,16.66
2023-04-22T07:04:32.804Z,16.68
2023-04-22T07:08:46.032Z,16.76
2023-04-22T07:12:58.369Z,17.12
2023-04-22T07:17:11.943Z,16.57
2023-04-22T07:21:24.311Z,16.92
2023-04-22T07:25:36.791Z,17.46
2023-04-22T07:29:49.156Z,17.86
2023-04-22T07:34:01.615Z,17.46
2023-04-22T07:38:14.680Z,17.86
2023-04-22T07:42:27.268Z,17.42
2023-04-22T07:46:40.253Z,18.37
2023-04-22T07:50:52.623Z,18.33
2023-04-22T07:55:05.464Z,18.40
2023-04-22T07:59:17.673Z,19.13
2023-04-22T08:03:30.133Z,18.59
2023-04-22T08:07:42.829Z,18.64
2023-04-22T08:11:55.292Z,18.95
2023-04-22T08:16:07.969Z,20.09
2023-04-22T08:20:20.588Z,19.67
2023-04-22T08:24:33.029Z,20.15
2023-04-22T08:28:45.504Z,20.27
2023-04-22T08:32:57.903Z,19.98
2023-04-22T08:37:10.449Z,19.87
2023-04-22T08:41:24.873Z,19.92
2023-04-22T08:45:40.175Z,20.10
2023-04-22T08:49:55.396Z,20.27
2023-04-22T08:54:07.825Z,20.70
2023-04-22T08:58:20.339Z,20.45
2023-04-22T09:02:33.675Z,20.81
2023-04-22T09:06:46.304Z,20.85
2023-04-22T09:10:59.670Z,20.74
2023-04-22T09:15:12.697Z,21.44
2023-04-22T09:19:25.937Z,21.88
2023-04-22T09:23:50.484Z,21.15
2023-04-22T09:28:03.562Z,22.38
2023-04-22T09:32:16.696Z,22.07
2023-04-22T09:36:30.537Z,21.09
2023-04-22T09:40:44.591Z,21.35
2023-04-22T09:45:01.257Z,20.29
2023-04-22T09:49:16.923Z,20.28
2023-04-22T09:53:30.249Z,20.29
2023-04-22T09:57:43.880Z,20.38
2023-04-22T10:01:59.095Z,21.00
2023-04-22T10:06:12.497Z,20.62
2023-04-22T10:10:25.032Z,22.58
2023-04-22T10:14:37.501Z,22.04
2023-04-22T10:18:51.269Z,21.68
2023-04-22T10:23:06.315Z,20.82
2023-04-22T10:27:22.690Z,21.51
2023-04-22T10:31:35.415Z,22.89
2023-04-22T10:36:08.706Z,22.72
2023-04-22T10:40:23.091Z,21.44
2023-04-22T10:44:54.711Z,23.38
2023-04-22T10:49:11.707Z,23.14
2023-04-22T10:53:50.529Z,23.56
2023-04-22T10:58:03.023Z,23.16
2023-04-22T11:02:16.752Z,22.66
2023-04-22T11:06:30.571Z,22.53
2023-04-22T11:10:45.916Z,22.86
2023-04-22T11:14:59.327Z,22.86
2023-04-22T11:19:11.658Z,24.44
2023-04-22T11:23:28.432Z,24.86
2023-04-22T11:27:43.764Z,24.05
2023-04-22T11:31:57.901Z,23.96
2023-04-22T11:36:14.067Z,24.24
2023-04-22T11:40:33.324Z,23.41
2023-04-22T11:44:47.710Z,23.85
2023-04-22T11:49:14.086Z,21.66
2023-04-22T11:53:26.626Z,20.80
2023-04-22T11:57:39.264Z,20.55
2023-04-22T12:01:52.746Z,19.85
2023-04-22T12:06:05.782Z,17.89
2023-04-22T12:10:18.157Z,16.68
2023-04-22T12:14:34.749Z,16.35
2023-04-22T12:18:52.306Z,15.97
2023-04-22T12:23:04.795Z,15.89
2023-04-22T12:27:17.392Z,15.37
2023-04-22T12:31:29.907Z,15.12
2023-04-22T12:35:42.570Z,14.84
2023-04-22T12:39:55.006Z,14.70
2023-04-22T12:44:08.565Z,14.63
2023-04-22T12:48:21.189Z,14.40
2023-04-22T12:52:35.490Z,14.72
2023-04-22T12:56:48.864Z,15.70
2023-04-22T13:01:01.276Z,17.13
2023-04-22T13:05:14.242Z,18.00
2023-04-22T13:09:27.525Z,18.50
2023-04-22T13:13:39.823Z,18.97
2023-04-22T13:17:52.602Z,19.41
2023-04-22T13:22:05.053Z,19.78
2023-04-22T13:26:17.461Z,18.51
2023-04-22T13:30:29.800Z,17.71
2023-04-22T13:34:42.192Z,18.50
2023-04-22T13:38:54.664Z,18.79
2023-04-22T13:43:09.621Z,19.03
2023-04-22T13:47:22.090Z,19.82
2023-04-22T13:51:35.123Z,20.22
2023-04-22T13:55:47.505Z,20.43
2023-04-22T14:00:00.196Z,20.49
2023-04-22T14:04:13.933Z,20.31
2023-04-22T14:08:26.672Z,20.84
2023-04-22T14:12:41.619Z,20.13
2023-04-22T14:16:54.072Z,20.63
2023-04-22T14:21:09.575Z,20.83
2023-04-22T14:25:22.159Z,20.71
2023-04-22T14:29:34.587Z,21.22
2023-04-22T14:33:47.049Z,20.99
2023-04-22T14:37:59.533Z,21.40
2023-04-22T14:42:11.848Z,21.47
2023-04-22T14:46:24.451Z,21.06
2023-04-22T14:50:36.987Z,21.03
2023-04-22T14:54:51.808Z,20.90
2023-04-22T14:59:04.535Z,21.30
2023-04-22T15:03:17.088Z,20.84
2023-04-22T15:07:29.659Z,20.57
2023-04-22T15:11:42.165Z,21.53
2023-04-22T15:15:54.657Z,21.06
2023-04-22T15:20:09.226Z,20.32
2023-04-22T15:24:21.852Z,20.76
2023-04-22T15:28:34.247Z,20.62
2023-04-22T15:32:46.668Z,20.48
2023-04-22T15:36:58.989Z,20.15
2023-04-22T15:41:11.388Z,20.14
2023-04-22T15:45:23.772Z,19.77
2023-04-22T15:49:38.640Z,20.02
2023-04-22T15:53:51.156Z,20.23
2023-04-22T15:58:03.421Z,20.03
2023-04-22T16:02:15.932Z,19.81
2023-04-22T16:06:28.395Z,19.50
2023-04-22T16:10:40.788Z,19.41
2023-04-22T16:14:53.291Z,19.21
2023-04-22T16:19:05.707Z,18.82
2023-04-22T16:23:18.071Z,18.80
2023-04-22T16:27:31.142Z,18.41
2023-04-22T16:31:44.101Z,18.44
2023-04-22T16:35:56.515Z,18.38
2023-04-22T16:40:09.502Z,18.39
2023-04-22T16:44:21.794Z,18.18
2023-04-22T16:48:34.129Z,18.08
2023-04-22T16:52:46.542Z,17.86
2023-04-22T16:56:58.913Z,17.72
2023-04-22T17:01:11.371Z,17.60
2023-04-22T17:05:23.800Z,17.48
2023-04-22T17:09:36.252Z,17.37
2023-04-22T17:13:48.631Z,17.21
2023-04-22T17:18:02.234Z,17.04
2023-04-22T17:22:14.643Z,16.92
2023-04-22T17:26:27.109Z,16.77
2023-04-22T17:30:39.628Z,16.66
2023-04-22T17:34:52.111Z,16.51
2023-04-22T17:39:04.580Z,16.39
2023-04-22T17:43:16.842Z,16.35
2023-04-22T17:47:29.893Z,16.27
2023-04-22T17:51:43.347Z,16.11
2023-04-22T17:55:55.807Z,16.03
2023-04-22T18:00:08.871Z,15.80
2023-04-22T18:04:24.208Z,15.83
2023-04-22T18:08:36.666Z,15.77
2023-04-22T18:12:50.021Z,15.66
2023-04-22T18:17:03.293Z,15.58
2023-04-22T18:21:15.932Z,15.37
2023-04-22T18:25:28.245Z,15.36
2023-04-22T18:29:40.864Z,15.34
2023-04-22T18:33:53.395Z,15.35
2023-04-22T18:38:06.924Z,15.21
2023-04-22T18:42:19.317Z,15.18
2023-04-22T18:46:31.823Z,15.10
2023-04-22T18:50:44.215Z,15.12
2023-04-22T18:54:57.946Z,14.92
2023-04-22T18:59:10.618Z,14.83
2023-04-22T19:03:27.003Z,14.93
2023-04-22T19:07:42.482Z,14.68
2023-04-22T19:11:56.348Z,14.50
2023-04-22T19:16:08.778Z,14.54
2023-04-22T19:20:21.306Z,14.75
2023-04-22T19:24:35.563Z,14.58
2023-04-22T19:28:49.010Z,14.50
2023-04-22T19:33:02.089Z,14.57
2023-04-22T19:37:14.655Z,14.64
2023-04-22T19:41:27.142Z,14.77
2023-04-22T19:45:39.543Z,14.78
2023-04-22T19:49:52.287Z,14.80
2023-04-22T19:54:05.385Z,14.77
2023-04-22T19:58:17.895Z,14.70
2023-04-22T20:02:30.696Z,15.13
2023-04-22T20:06:48.754Z,14.94
2023-04-22T20:11:01.401Z,14.77
2023-04-22T20:15:14.316Z,14.52
2023-04-22T20:19:28.617Z,14.31
2023-04-22T20:23:42.434Z,14.11
2023-04-22T20:27:56.576Z,14.00
2023-04-22T20:32:09.835Z,14.04
2023-04-22T20:36:24.468Z,14.18
2023-04-22T20:40:38.339Z,14.16
2023-04-22T20:44:50.663Z,14.39
2023-04-22T20:49:03.020Z,14.21
2023-04-22T20:53:15.342Z,13.90
2023-04-22T20:57:27.803Z,13.89
2023-04-22T21:01:41.275Z,13.73
2023-04-22T21:05:54.187Z,13.74
2023-04-22T21:10:07.642Z,13.55
2023-04-22T21:14:22.440Z,13.55
2023-04-22T21:18:37.182Z,13.45
2023-04-22T21:22:49.705Z,13.59
2023-04-22T21:27:03.224Z,13.35
2023-04-22T21:31:16.317Z,13.27
2023-04-22T21:35:28.816Z,13.22
2023-04-22T21:39:41.440Z,13.17
2023-04-22T21:43:53.912Z,13.23
2023-04-22T21:48:06.328Z,13.10
2023-04-22T21:52:19.208Z,13.06
2023-04-22T21:56:34.611Z,13.19
2023-04-22T22:00:46.982Z,13.28
2023-04-22T22:04:59.340Z,13.25
2023-04-22T22:09:12.685Z,13.30
2023-04-22T22:13:25.291Z,13.14
2023-04-22T22:17:38.486Z,13.07
2023-04-22T22:21:51.558Z,13.24
2023-04-22T22:26:04.023Z,12.97
2023-04-22T22:30:17.500Z,12.93
2023-04-22T22:34:29.938Z,12.98
2023-04-22T22:38:42.283Z,12.83
2023-04-22T22:42:57.526Z,12.64
2023-04-22T22:47:11.199Z,12.57
2023-04-22T22:51:23.616Z,12.61
2023-04-22T22:55:36.045Z,12.56
2023-04-22T22:59:48.586Z,12.52
2023-04-22T23:04:01.128Z,12.46
2023-04-22T23:08:13.724Z,12.59
2023-04-22T23:12:26.300Z,12.58
2023-04-22T23:16:38.992Z,12.48
2023-04-22T23:20:52.232Z,12.34
2023-04-22T23:25:05.290Z,12.29
2023-04-22T23:29:19.148Z,12.31
2023-04-22T23:33:32.885Z,12.16
2023-04-22T23:37:48.339Z,12.18
2023-04-22T23:42:01.393Z,12.46
2023-04-22T23:46:15.263Z,12.22
2023-04-22T23:50:30.300Z,12.30
2023-04-22T23:54:44.792Z,12.21
2023-04-22T23:58:57.926Z,12.17
